sensor_id;sensor_type;location;lat;lon;timestamp;P1;durP1;ratioP1;P2;durP2;ratioP2
8564;SDS011;4320;51.498;6.556;2024-03-08T00:00:50;19.63;;;13.57;;
8564;SDS011;4320;51.498;6.556;2024-03-08T00:03:16;22.17;;;13.87;;
8564;SDS011;4320;51.498;6.556;2024-03-08T00:05:42;23.10;;;13.67;;
8564;SDS011;4320;51.498;6.556;2024-03-08T00:08:07;24.00;;;14.98;;
8564;SDS011;4320;51.498;6.556;2024-03-08T00:10:34;22.08;;;15.15;;
8564;SDS011;4320;51.498;6.556;2024-03-08T00:13:00;21.83;;;14.05;;
8564;SDS011;4320;51.498;6.556;2024-03-08T00:15:29;20.40;;;13.85;;
8564;SDS011;4320;51.498;6.556;2024-03-08T00:17:54;24.33;;;14.27;;
8564;SDS011;4320;51.498;6.556;2024-03-08T00:20:20;21.75;;;14.02;;
8564;SDS011;4320;51.498;6.556;2024-03-08T00:22:45;20.07;;;13.90;;
8564;SDS011;4320;51.498;6.556;2024-03-08T00:25:12;26.88;;;14.82;;
8564;SDS011;4320;51.498;6.556;2024-03-08T00:27:37;22.60;;;13.25;;
8564;SDS011;4320;51.498;6.556;2024-03-08T00:30:03;19.47;;;14.40;;
8564;SDS011;4320;51.498;6.556;2024-03-08T00:32:30;23.37;;;15.10;;
8564;SDS011;4320;51.498;6.556;2024-03-08T00:34:56;24.30;;;14.97;;
8564;SDS011;4320;51.498;6.556;2024-03-08T00:37:22;24.65;;;14.65;;
8564;SDS011;4320;51.498;6.556;2024-03-08T00:39:48;19.37;;;14.30;;
8564;SDS011;4320;51.498;6.556;2024-03-08T00:42:15;21.73;;;15.10;;
8564;SDS011;4320;51.498;6.556;2024-03-08T00:44:41;21.83;;;14.63;;
8564;SDS011;4320;51.498;6.556;2024-03-08T00:47:06;20.30;;;14.30;;
8564;SDS011;4320;51.498;6.556;2024-03-08T00:49:32;22.30;;;14.37;;
8564;SDS011;4320;51.498;6.556;2024-03-08T00:51:57;24.87;;;15.07;;
8564;SDS011;4320;51.498;6.556;2024-03-08T00:54:23;20.73;;;13.90;;
8564;SDS011;4320;51.498;6.556;2024-03-08T00:56:49;23.83;;;14.70;;
8564;SDS011;4320;51.498;6.556;2024-03-08T00:59:14;25.00;;;14.97;;
8564;SDS011;4320;51.498;6.556;2024-03-08T01:01:40;20.37;;;14.00;;
8564;SDS011;4320;51.498;6.556;2024-03-08T01:04:06;21.43;;;14.80;;
8564;SDS011;4320;51.498;6.556;2024-03-08T01:06:32;20.23;;;13.60;;
8564;SDS011;4320;51.498;6.556;2024-03-08T01:08:59;22.90;;;15.30;;
8564;SDS011;4320;51.498;6.556;2024-03-08T01:11:24;21.43;;;14.87;;
8564;SDS011;4320;51.498;6.556;2024-03-08T01:13:50;24.30;;;15.43;;
8564;SDS011;4320;51.498;6.556;2024-03-08T01:16:16;20.63;;;14.50;;
8564;SDS011;4320;51.498;6.556;2024-03-08T01:18:46;23.03;;;14.93;;
8564;SDS011;4320;51.498;6.556;2024-03-08T01:21:12;20.87;;;14.80;;
8564;SDS011;4320;51.498;6.556;2024-03-08T01:23:38;22.70;;;15.87;;
8564;SDS011;4320;51.498;6.556;2024-03-08T01:26:03;24.77;;;15.37;;
8564;SDS011;4320;51.498;6.556;2024-03-08T01:28:29;22.93;;;15.57;;
8564;SDS011;4320;51.498;6.556;2024-03-08T01:30:55;24.70;;;15.00;;
8564;SDS011;4320;51.498;6.556;2024-03-08T01:33:24;25.10;;;15.40;;
8564;SDS011;4320;51.498;6.556;2024-03-08T01:35:51;22.53;;;15.77;;
8564;SDS011;4320;51.498;6.556;2024-03-08T01:38:17;24.87;;;15.87;;
8564;SDS011;4320;51.498;6.556;2024-03-08T01:40:43;20.23;;;15.57;;
8564;SDS011;4320;51.498;6.556;2024-03-08T01:45:45;21.60;;;14.90;;
8564;SDS011;4320;51.498;6.556;2024-03-08T01:48:10;24.13;;;16.00;;
8564;SDS011;4320;51.498;6.556;2024-03-08T01:50:37;20.90;;;15.00;;
8564;SDS011;4320;51.498;6.556;2024-03-08T01:53:04;25.73;;;16.70;;
8564;SDS011;4320;51.498;6.556;2024-03-08T01:55:31;23.57;;;15.37;;
8564;SDS011;4320;51.498;6.556;2024-03-08T01:57:56;24.60;;;15.90;;
8564;SDS011;4320;51.498;6.556;2024-03-08T02:00:24;25.80;;;16.50;;
8564;SDS011;4320;51.498;6.556;2024-03-08T02:02:51;24.57;;;15.83;;
8564;SDS011;4320;51.498;6.556;2024-03-08T02:05:19;25.47;;;17.03;;
8564;SDS011;4320;51.498;6.556;2024-03-08T02:07:46;22.93;;;16.37;;
8564;SDS011;4320;51.498;6.556;2024-03-08T02:10:11;24.50;;;16.67;;
8564;SDS011;4320;51.498;6.556;2024-03-08T02:12:38;27.43;;;18.03;;
8564;SDS011;4320;51.498;6.556;2024-03-08T02:15:04;25.50;;;16.83;;
8564;SDS011;4320;51.498;6.556;2024-03-08T02:17:31;24.67;;;16.87;;
8564;SDS011;4320;51.498;6.556;2024-03-08T02:19:58;24.77;;;16.40;;
8564;SDS011;4320;51.498;6.556;2024-03-08T02:22:26;27.93;;;18.23;;
8564;SDS011;4320;51.498;6.556;2024-03-08T02:24:58;25.03;;;17.70;;
8564;SDS011;4320;51.498;6.556;2024-03-08T02:27:26;28.47;;;18.40;;
8564;SDS011;4320;51.498;6.556;2024-03-08T02:29:54;34.73;;;18.53;;
8564;SDS011;4320;51.498;6.556;2024-03-08T02:32:24;28.73;;;19.20;;
8564;SDS011;4320;51.498;6.556;2024-03-08T02:34:50;27.90;;;18.67;;
8564;SDS011;4320;51.498;6.556;2024-03-08T02:37:16;25.50;;;18.37;;
8564;SDS011;4320;51.498;6.556;2024-03-08T02:39:42;26.43;;;17.87;;
8564;SDS011;4320;51.498;6.556;2024-03-08T02:42:08;30.27;;;19.67;;
8564;SDS011;4320;51.498;6.556;2024-03-08T02:44:33;31.53;;;18.97;;
8564;SDS011;4320;51.498;6.556;2024-03-08T02:46:59;26.37;;;17.60;;
8564;SDS011;4320;51.498;6.556;2024-03-08T02:49:27;26.10;;;17.53;;
8564;SDS011;4320;51.498;6.556;2024-03-08T02:51:53;28.60;;;20.00;;
8564;SDS011;4320;51.498;6.556;2024-03-08T02:54:19;31.63;;;18.80;;
8564;SDS011;4320;51.498;6.556;2024-03-08T02:56:45;27.03;;;17.97;;
8564;SDS011;4320;51.498;6.556;2024-03-08T02:59:11;29.00;;;18.63;;
8564;SDS011;4320;51.498;6.556;2024-03-08T03:01:37;26.83;;;19.73;;
8564;SDS011;4320;51.498;6.556;2024-03-08T03:04:04;27.93;;;18.70;;
8564;SDS011;4320;51.498;6.556;2024-03-08T03:06:29;27.47;;;18.90;;
8564;SDS011;4320;51.498;6.556;2024-03-08T03:08:56;25.97;;;18.47;;
8564;SDS011;4320;51.498;6.556;2024-03-08T03:11:22;28.97;;;19.57;;
8564;SDS011;4320;51.498;6.556;2024-03-08T03:13:48;29.00;;;18.57;;
8564;SDS011;4320;51.498;6.556;2024-03-08T03:16:20;30.40;;;19.67;;
8564;SDS011;4320;51.498;6.556;2024-03-08T03:18:46;31.73;;;20.07;;
8564;SDS011;4320;51.498;6.556;2024-03-08T03:21:12;26.77;;;18.73;;
8564;SDS011;4320;51.498;6.556;2024-03-08T03:23:39;29.47;;;19.70;;
8564;SDS011;4320;51.498;6.556;2024-03-08T03:26:05;29.60;;;19.20;;
8564;SDS011;4320;51.498;6.556;2024-03-08T03:28:33;27.60;;;18.57;;
8564;SDS011;4320;51.498;6.556;2024-03-08T03:30:59;27.73;;;17.90;;
8564;SDS011;4320;51.498;6.556;2024-03-08T03:33:26;30.17;;;19.07;;
8564;SDS011;4320;51.498;6.556;2024-03-08T03:35:52;27.07;;;18.53;;
8564;SDS011;4320;51.498;6.556;2024-03-08T03:38:17;28.23;;;18.63;;
8564;SDS011;4320;51.498;6.556;2024-03-08T03:40:44;27.03;;;17.87;;
8564;SDS011;4320;51.498;6.556;2024-03-08T03:43:11;30.83;;;19.00;;
8564;SDS011;4320;51.498;6.556;2024-03-08T03:45:37;33.07;;;19.47;;
8564;SDS011;4320;51.498;6.556;2024-03-08T03:48:05;29.33;;;17.90;;
8564;SDS011;4320;51.498;6.556;2024-03-08T03:50:31;30.37;;;19.20;;
8564;SDS011;4320;51.498;6.556;2024-03-08T03:53:00;25.70;;;17.63;;
8564;SDS011;4320;51.498;6.556;2024-03-08T03:55:27;28.80;;;18.77;;
8564;SDS011;4320;51.498;6.556;2024-03-08T03:57:53;27.37;;;18.43;;
8564;SDS011;4320;51.498;6.556;2024-03-08T04:00:19;26.33;;;17.73;;
8564;SDS011;4320;51.498;6.556;2024-03-08T04:02:45;26.27;;;18.20;;
8564;SDS011;4320;51.498;6.556;2024-03-08T04:05:11;28.77;;;17.70;;
8564;SDS011;4320;51.498;6.556;2024-03-08T04:07:37;28.10;;;18.07;;
8564;SDS011;4320;51.498;6.556;2024-03-08T04:10:04;29.93;;;18.73;;
8564;SDS011;4320;51.498;6.556;2024-03-08T04:12:33;28.53;;;18.17;;
8564;SDS011;4320;51.498;6.556;2024-03-08T04:14:59;32.67;;;18.50;;
8564;SDS011;4320;51.498;6.556;2024-03-08T04:17:25;29.00;;;19.37;;
8564;SDS011;4320;51.498;6.556;2024-03-08T04:19:51;31.20;;;18.23;;
8564;SDS011;4320;51.498;6.556;2024-03-08T04:22:17;28.30;;;18.73;;
8564;SDS011;4320;51.498;6.556;2024-03-08T04:24:46;22.83;;;16.60;;
8564;SDS011;4320;51.498;6.556;2024-03-08T04:27:12;26.40;;;17.40;;
8564;SDS011;4320;51.498;6.556;2024-03-08T04:29:39;28.77;;;18.53;;
8564;SDS011;4320;51.498;6.556;2024-03-08T04:32:05;27.27;;;18.07;;
8564;SDS011;4320;51.498;6.556;2024-03-08T04:34:31;29.87;;;18.37;;
8564;SDS011;4320;51.498;6.556;2024-03-08T04:36:58;27.47;;;17.93;;
8564;SDS011;4320;51.498;6.556;2024-03-08T04:39:24;31.03;;;18.17;;
8564;SDS011;4320;51.498;6.556;2024-03-08T04:41:53;28.23;;;18.07;;
8564;SDS011;4320;51.498;6.556;2024-03-08T04:44:19;24.83;;;17.07;;
8564;SDS011;4320;51.498;6.556;2024-03-08T04:46:45;27.47;;;17.97;;
8564;SDS011;4320;51.498;6.556;2024-03-08T04:49:11;28.53;;;18.80;;
8564;SDS011;4320;51.498;6.556;2024-03-08T04:51:38;29.10;;;18.70;;
8564;SDS011;4320;51.498;6.556;2024-03-08T04:54:03;29.33;;;18.57;;
8564;SDS011;4320;51.498;6.556;2024-03-08T04:56:32;25.60;;;17.77;;
8564;SDS011;4320;51.498;6.556;2024-03-08T04:58:58;28.47;;;17.37;;
8564;SDS011;4320;51.498;6.556;2024-03-08T05:01:24;28.70;;;18.63;;
8564;SDS011;4320;51.498;6.556;2024-03-08T05:03:49;36.03;;;19.43;;
8564;SDS011;4320;51.498;6.556;2024-03-08T05:06:16;26.67;;;18.07;;
8564;SDS011;4320;51.498;6.556;2024-03-08T05:08:41;28.10;;;18.40;;
8564;SDS011;4320;51.498;6.556;2024-03-08T05:11:07;28.03;;;18.33;;
8564;SDS011;4320;51.498;6.556;2024-03-08T05:13:33;31.13;;;18.37;;
8564;SDS011;4320;51.498;6.556;2024-03-08T05:15:59;29.30;;;19.77;;
8564;SDS011;4320;51.498;6.556;2024-03-08T05:18:25;30.90;;;19.70;;
8564;SDS011;4320;51.498;6.556;2024-03-08T05:20:53;30.80;;;18.43;;
8564;SDS011;4320;51.498;6.556;2024-03-08T05:23:18;33.70;;;19.43;;
8564;SDS011;4320;51.498;6.556;2024-03-08T05:25:44;27.43;;;18.47;;
8564;SDS011;4320;51.498;6.556;2024-03-08T05:28:16;27.47;;;18.63;;
8564;SDS011;4320;51.498;6.556;2024-03-08T05:30:42;28.30;;;18.90;;
8564;SDS011;4320;51.498;6.556;2024-03-08T05:33:07;27.73;;;18.23;;
8564;SDS011;4320;51.498;6.556;2024-03-08T05:35:35;32.53;;;19.67;;
8564;SDS011;4320;51.498;6.556;2024-03-08T05:38:01;26.63;;;18.30;;
8564;SDS011;4320;51.498;6.556;2024-03-08T05:40:27;28.17;;;18.10;;
8564;SDS011;4320;51.498;6.556;2024-03-08T05:42:56;30.77;;;19.57;;
8564;SDS011;4320;51.498;6.556;2024-03-08T05:45:23;31.10;;;20.07;;
8564;SDS011;4320;51.498;6.556;2024-03-08T05:47:50;29.63;;;19.50;;
8564;SDS011;4320;51.498;6.556;2024-03-08T05:50:16;33.23;;;20.03;;
8564;SDS011;4320;51.498;6.556;2024-03-08T05:52:42;31.93;;;19.33;;
8564;SDS011;4320;51.498;6.556;2024-03-08T05:55:08;28.20;;;18.27;;
8564;SDS011;4320;51.498;6.556;2024-03-08T05:57:34;35.27;;;20.20;;
8564;SDS011;4320;51.498;6.556;2024-03-08T06:00:04;34.27;;;20.00;;
8564;SDS011;4320;51.498;6.556;2024-03-08T06:02:31;29.27;;;19.07;;
8564;SDS011;4320;51.498;6.556;2024-03-08T06:04:56;30.23;;;19.53;;
8564;SDS011;4320;51.498;6.556;2024-03-08T06:07:22;31.23;;;19.63;;
8564;SDS011;4320;51.498;6.556;2024-03-08T06:09:47;30.33;;;18.77;;
8564;SDS011;4320;51.498;6.556;2024-03-08T06:12:14;32.60;;;19.73;;
8564;SDS011;4320;51.498;6.556;2024-03-08T06:14:44;30.17;;;20.03;;
8564;SDS011;4320;51.498;6.556;2024-03-08T06:17:10;31.77;;;20.40;;
8564;SDS011;4320;51.498;6.556;2024-03-08T06:19:36;31.63;;;19.43;;
8564;SDS011;4320;51.498;6.556;2024-03-08T06:22:02;31.40;;;19.63;;
8564;SDS011;4320;51.498;6.556;2024-03-08T06:24:30;28.33;;;19.03;;
8564;SDS011;4320;51.498;6.556;2024-03-08T06:27:01;29.40;;;20.40;;
8564;SDS011;4320;51.498;6.556;2024-03-08T06:29:27;32.17;;;20.00;;
8564;SDS011;4320;51.498;6.556;2024-03-08T06:31:52;31.20;;;19.77;;
8564;SDS011;4320;51.498;6.556;2024-03-08T06:34:18;33.17;;;19.03;;
8564;SDS011;4320;51.498;6.556;2024-03-08T06:36:44;30.57;;;18.97;;
8564;SDS011;4320;51.498;6.556;2024-03-08T06:39:09;35.03;;;20.87;;
8564;SDS011;4320;51.498;6.556;2024-03-08T06:41:38;31.93;;;20.23;;
8564;SDS011;4320;51.498;6.556;2024-03-08T06:44:04;29.77;;;20.13;;
8564;SDS011;4320;51.498;6.556;2024-03-08T06:46:30;31.23;;;20.33;;
8564;SDS011;4320;51.498;6.556;2024-03-08T06:48:55;30.73;;;19.47;;
8564;SDS011;4320;51.498;6.556;2024-03-08T06:51:21;30.67;;;19.83;;
8564;SDS011;4320;51.498;6.556;2024-03-08T06:53:47;33.33;;;20.03;;
8564;SDS011;4320;51.498;6.556;2024-03-08T06:56:14;32.20;;;19.50;;
8564;SDS011;4320;51.498;6.556;2024-03-08T06:58:40;30.40;;;19.47;;
8564;SDS011;4320;51.498;6.556;2024-03-08T07:01:05;32.07;;;19.67;;
8564;SDS011;4320;51.498;6.556;2024-03-08T07:03:32;31.73;;;19.97;;
8564;SDS011;4320;51.498;6.556;2024-03-08T07:05:58;29.80;;;18.53;;
8564;SDS011;4320;51.498;6.556;2024-03-08T07:08:24;28.03;;;19.37;;
8564;SDS011;4320;51.498;6.556;2024-03-08T07:10:51;30.33;;;19.93;;
8564;SDS011;4320;51.498;6.556;2024-03-08T07:13:17;30.43;;;19.27;;
8564;SDS011;4320;51.498;6.556;2024-03-08T07:15:43;27.10;;;18.42;;
8564;SDS011;4320;51.498;6.556;2024-03-08T07:18:10;26.58;;;19.27;;
8564;SDS011;4320;51.498;6.556;2024-03-08T07:20:39;25.83;;;17.55;;
8564;SDS011;4320;51.498;6.556;2024-03-08T07:23:05;24.83;;;17.17;;
8564;SDS011;4320;51.498;6.556;2024-03-08T07:25:30;24.65;;;16.98;;
8564;SDS011;4320;51.498;6.556;2024-03-08T07:27:56;25.58;;;17.63;;
8564;SDS011;4320;51.498;6.556;2024-03-08T07:30:25;22.95;;;17.83;;
8564;SDS011;4320;51.498;6.556;2024-03-08T07:33:10;25.42;;;17.60;;
8564;SDS011;4320;51.498;6.556;2024-03-08T07:35:39;26.95;;;19.13;;
8564;SDS011;4320;51.498;6.556;2024-03-08T07:38:07;28.02;;;20.90;;
8564;SDS011;4320;51.498;6.556;2024-03-08T07:40:37;26.95;;;20.20;;
8564;SDS011;4320;51.498;6.556;2024-03-08T07:43:10;30.08;;;21.40;;
8564;SDS011;4320;51.498;6.556;2024-03-08T07:45:36;27.33;;;19.30;;
8564;SDS011;4320;51.498;6.556;2024-03-08T07:48:03;25.27;;;18.85;;
8564;SDS011;4320;51.498;6.556;2024-03-08T07:50:29;28.08;;;19.95;;
8564;SDS011;4320;51.498;6.556;2024-03-08T07:52:54;27.25;;;19.70;;
8564;SDS011;4320;51.498;6.556;2024-03-08T07:55:20;28.13;;;19.23;;
8564;SDS011;4320;51.498;6.556;2024-03-08T07:57:49;27.10;;;19.33;;
8564;SDS011;4320;51.498;6.556;2024-03-08T08:00:14;26.88;;;19.30;;
8564;SDS011;4320;51.498;6.556;2024-03-08T08:02:44;27.75;;;19.23;;
8564;SDS011;4320;51.498;6.556;2024-03-08T08:05:10;28.00;;;19.33;;
8564;SDS011;4320;51.498;6.556;2024-03-08T08:07:36;29.15;;;20.67;;
8564;SDS011;4320;51.498;6.556;2024-03-08T08:10:02;29.50;;;19.15;;
8564;SDS011;4320;51.498;6.556;2024-03-08T08:12:28;24.83;;;18.45;;
8564;SDS011;4320;51.498;6.556;2024-03-08T08:14:54;26.13;;;19.42;;
8564;SDS011;4320;51.498;6.556;2024-03-08T08:17:19;25.80;;;19.65;;
8564;SDS011;4320;51.498;6.556;2024-03-08T08:19:45;26.13;;;19.08;;
8564;SDS011;4320;51.498;6.556;2024-03-08T08:22:11;27.15;;;19.90;;
8564;SDS011;4320;51.498;6.556;2024-03-08T08:24:36;24.08;;;19.45;;
8564;SDS011;4320;51.498;6.556;2024-03-08T08:27:02;27.33;;;19.08;;
8564;SDS011;4320;51.498;6.556;2024-03-08T08:29:29;26.75;;;20.33;;
8564;SDS011;4320;51.498;6.556;2024-03-08T08:31:57;25.35;;;19.15;;
8564;SDS011;4320;51.498;6.556;2024-03-08T08:34:24;25.23;;;19.52;;
8564;SDS011;4320;51.498;6.556;2024-03-08T08:36:51;28.50;;;19.83;;
8564;SDS011;4320;51.498;6.556;2024-03-08T08:39:18;25.27;;;19.48;;
8564;SDS011;4320;51.498;6.556;2024-03-08T08:41:43;23.42;;;18.95;;
8564;SDS011;4320;51.498;6.556;2024-03-08T08:44:09;27.10;;;19.02;;
8564;SDS011;4320;51.498;6.556;2024-03-08T08:46:37;26.15;;;19.13;;
8564;SDS011;4320;51.498;6.556;2024-03-08T08:49:03;24.63;;;18.67;;
8564;SDS011;4320;51.498;6.556;2024-03-08T08:51:31;25.13;;;18.35;;
8564;SDS011;4320;51.498;6.556;2024-03-08T08:53:58;24.63;;;17.88;;
8564;SDS011;4320;51.498;6.556;2024-03-08T08:56:24;20.98;;;17.73;;
8564;SDS011;4320;51.498;6.556;2024-03-08T08:58:50;23.50;;;16.83;;
8564;SDS011;4320;51.498;6.556;2024-03-08T09:01:18;25.95;;;18.77;;
8564;SDS011;4320;51.498;6.556;2024-03-08T09:03:44;22.67;;;17.42;;
8564;SDS011;4320;51.498;6.556;2024-03-08T09:06:11;25.35;;;16.85;;
8564;SDS011;4320;51.498;6.556;2024-03-08T09:08:38;26.48;;;17.98;;
8564;SDS011;4320;51.498;6.556;2024-03-08T09:11:04;22.13;;;16.45;;
8564;SDS011;4320;51.498;6.556;2024-03-08T09:13:30;23.67;;;16.25;;
8564;SDS011;4320;51.498;6.556;2024-03-08T09:15:56;20.52;;;16.05;;
8564;SDS011;4320;51.498;6.556;2024-03-08T09:18:22;21.70;;;16.10;;
8564;SDS011;4320;51.498;6.556;2024-03-08T09:20:49;21.95;;;16.35;;
8564;SDS011;4320;51.498;6.556;2024-03-08T09:23:14;25.25;;;17.70;;
8564;SDS011;4320;51.498;6.556;2024-03-08T09:25:41;20.65;;;16.52;;
8564;SDS011;4320;51.498;6.556;2024-03-08T09:28:08;23.35;;;17.15;;
8564;SDS011;4320;51.498;6.556;2024-03-08T09:30:36;21.42;;;16.42;;
8564;SDS011;4320;51.498;6.556;2024-03-08T09:33:03;22.52;;;15.60;;
8564;SDS011;4320;51.498;6.556;2024-03-08T09:35:29;21.38;;;15.63;;
8564;SDS011;4320;51.498;6.556;2024-03-08T09:37:55;25.95;;;17.27;;
8564;SDS011;4320;51.498;6.556;2024-03-08T09:40:21;21.73;;;15.00;;
8564;SDS011;4320;51.498;6.556;2024-03-08T09:42:49;23.25;;;14.70;;
8564;SDS011;4320;51.498;6.556;2024-03-08T09:45:15;21.05;;;15.07;;
8564;SDS011;4320;51.498;6.556;2024-03-08T09:47:42;21.65;;;16.50;;
8564;SDS011;4320;51.498;6.556;2024-03-08T09:50:10;25.45;;;15.10;;
8564;SDS011;4320;51.498;6.556;2024-03-08T09:52:41;20.10;;;15.80;;
8564;SDS011;4320;51.498;6.556;2024-03-08T09:55:09;21.50;;;15.27;;
8564;SDS011;4320;51.498;6.556;2024-03-08T09:57:39;21.70;;;14.93;;
8564;SDS011;4320;51.498;6.556;2024-03-08T10:00:05;23.33;;;15.65;;
8564;SDS011;4320;51.498;6.556;2024-03-08T10:02:46;18.40;;;14.57;;
8564;SDS011;4320;51.498;6.556;2024-03-08T10:05:12;22.58;;;15.48;;
8564;SDS011;4320;51.498;6.556;2024-03-08T10:07:39;25.70;;;15.35;;
8564;SDS011;4320;51.498;6.556;2024-03-08T10:10:05;21.60;;;16.48;;
8564;SDS011;4320;51.498;6.556;2024-03-08T10:12:33;22.73;;;16.42;;
8564;SDS011;4320;51.498;6.556;2024-03-08T10:14:59;25.15;;;16.27;;
8564;SDS011;4320;51.498;6.556;2024-03-08T10:17:26;22.02;;;16.67;;
8564;SDS011;4320;51.498;6.556;2024-03-08T10:19:52;21.80;;;15.65;;
8564;SDS011;4320;51.498;6.556;2024-03-08T10:22:18;23.80;;;17.33;;
8564;SDS011;4320;51.498;6.556;2024-03-08T10:24:47;23.60;;;17.50;;
8564;SDS011;4320;51.498;6.556;2024-03-08T10:27:13;21.67;;;16.52;;
8564;SDS011;4320;51.498;6.556;2024-03-08T10:29:41;21.00;;;16.35;;
8564;SDS011;4320;51.498;6.556;2024-03-08T10:32:09;24.90;;;16.55;;
8564;SDS011;4320;51.498;6.556;2024-03-08T10:34:35;23.35;;;16.33;;
8564;SDS011;4320;51.498;6.556;2024-03-08T10:37:03;23.83;;;15.70;;
8564;SDS011;4320;51.498;6.556;2024-03-08T10:39:34;20.42;;;15.18;;
8564;SDS011;4320;51.498;6.556;2024-03-08T10:42:02;24.35;;;16.42;;
8564;SDS011;4320;51.498;6.556;2024-03-08T10:52:14;24.10;;;15.65;;
8564;SDS011;4320;51.498;6.556;2024-03-08T10:54:42;20.40;;;15.25;;
8564;SDS011;4320;51.498;6.556;2024-03-08T10:57:09;23.88;;;16.92;;
8564;SDS011;4320;51.498;6.556;2024-03-08T10:59:38;19.50;;;15.18;;
8564;SDS011;4320;51.498;6.556;2024-03-08T11:02:04;22.52;;;15.98;;
8564;SDS011;4320;51.498;6.556;2024-03-08T11:04:31;24.92;;;17.02;;
8564;SDS011;4320;51.498;6.556;2024-03-08T11:07:02;20.77;;;15.38;;
8564;SDS011;4320;51.498;6.556;2024-03-08T11:09:35;18.55;;;14.90;;
8564;SDS011;4320;51.498;6.556;2024-03-08T11:12:21;19.60;;;14.88;;
8564;SDS011;4320;51.498;6.556;2024-03-08T11:14:50;20.20;;;16.38;;
8564;SDS011;4320;51.498;6.556;2024-03-08T11:17:20;24.75;;;16.77;;
8564;SDS011;4320;51.498;6.556;2024-03-08T11:19:50;23.35;;;16.35;;
8564;SDS011;4320;51.498;6.556;2024-03-08T11:22:25;19.75;;;15.30;;
8564;SDS011;4320;51.498;6.556;2024-03-08T11:24:53;20.45;;;14.75;;
8564;SDS011;4320;51.498;6.556;2024-03-08T11:27:28;22.50;;;15.57;;
8564;SDS011;4320;51.498;6.556;2024-03-08T11:30:02;21.10;;;15.45;;
8564;SDS011;4320;51.498;6.556;2024-03-08T11:32:43;24.88;;;16.40;;
8564;SDS011;4320;51.498;6.556;2024-03-08T11:35:20;19.08;;;14.43;;
8564;SDS011;4320;51.498;6.556;2024-03-08T11:37:47;19.48;;;14.95;;
8564;SDS011;4320;51.498;6.556;2024-03-08T11:40:13;24.48;;;16.95;;
8564;SDS011;4320;51.498;6.556;2024-03-08T11:42:47;22.80;;;16.05;;
8564;SDS011;4320;51.498;6.556;2024-03-08T11:45:14;23.98;;;16.02;;
8564;SDS011;4320;51.498;6.556;2024-03-08T11:47:42;25.13;;;16.63;;
8564;SDS011;4320;51.498;6.556;2024-03-08T11:50:11;24.17;;;15.63;;
8564;SDS011;4320;51.498;6.556;2024-03-08T11:52:37;22.08;;;15.85;;
8564;SDS011;4320;51.498;6.556;2024-03-08T11:55:03;21.13;;;15.27;;
8564;SDS011;4320;51.498;6.556;2024-03-08T11:57:30;21.30;;;15.02;;
8564;SDS011;4320;51.498;6.556;2024-03-08T11:59:57;22.33;;;15.75;;
8564;SDS011;4320;51.498;6.556;2024-03-08T12:02:24;20.42;;;14.52;;
8564;SDS011;4320;51.498;6.556;2024-03-08T12:04:59;22.58;;;16.20;;
8564;SDS011;4320;51.498;6.556;2024-03-08T12:07:28;24.33;;;15.40;;
8564;SDS011;4320;51.498;6.556;2024-03-08T12:12:50;23.80;;;16.10;;
8564;SDS011;4320;51.498;6.556;2024-03-08T12:15:21;22.05;;;15.45;;
8564;SDS011;4320;51.498;6.556;2024-03-08T12:17:50;21.95;;;15.98;;
8564;SDS011;4320;51.498;6.556;2024-03-08T12:22:43;22.60;;;15.52;;
8564;SDS011;4320;51.498;6.556;2024-03-08T12:25:13;22.20;;;15.40;;
8564;SDS011;4320;51.498;6.556;2024-03-08T12:27:39;19.40;;;14.77;;
8564;SDS011;4320;51.498;6.556;2024-03-08T12:30:19;20.73;;;15.55;;
8564;SDS011;4320;51.498;6.556;2024-03-08T12:35:24;23.10;;;14.88;;
8564;SDS011;4320;51.498;6.556;2024-03-08T12:37:54;23.23;;;15.18;;
8564;SDS011;4320;51.498;6.556;2024-03-08T12:40:30;21.52;;;14.73;;
8564;SDS011;4320;51.498;6.556;2024-03-08T12:43:00;24.10;;;14.80;;
8564;SDS011;4320;51.498;6.556;2024-03-08T12:45:27;20.45;;;15.18;;
8564;SDS011;4320;51.498;6.556;2024-03-08T12:47:53;20.63;;;15.68;;
8564;SDS011;4320;51.498;6.556;2024-03-08T12:50:21;19.42;;;13.68;;
8564;SDS011;4320;51.498;6.556;2024-03-08T12:52:48;19.83;;;14.90;;
8564;SDS011;4320;51.498;6.556;2024-03-08T12:55:14;20.33;;;14.70;;
8564;SDS011;4320;51.498;6.556;2024-03-08T12:57:43;19.13;;;14.63;;
8564;SDS011;4320;51.498;6.556;2024-03-08T13:00:09;23.20;;;15.82;;
8564;SDS011;4320;51.498;6.556;2024-03-08T13:02:43;20.67;;;15.00;;
8564;SDS011;4320;51.498;6.556;2024-03-08T13:05:10;20.73;;;14.20;;
8564;SDS011;4320;51.498;6.556;2024-03-08T13:07:36;20.95;;;15.98;;
8564;SDS011;4320;51.498;6.556;2024-03-08T13:10:03;21.73;;;14.25;;
8564;SDS011;4320;51.498;6.556;2024-03-08T13:12:29;17.73;;;13.18;;
8564;SDS011;4320;51.498;6.556;2024-03-08T13:14:55;17.00;;;13.82;;
8564;SDS011;4320;51.498;6.556;2024-03-08T13:17:21;18.27;;;13.80;;
8564;SDS011;4320;51.498;6.556;2024-03-08T13:19:47;17.58;;;13.75;;
8564;SDS011;4320;51.498;6.556;2024-03-08T13:22:13;17.70;;;13.52;;
8564;SDS011;4320;51.498;6.556;2024-03-08T13:24:41;19.17;;;13.68;;
8564;SDS011;4320;51.498;6.556;2024-03-08T13:27:08;18.75;;;14.23;;
8564;SDS011;4320;51.498;6.556;2024-03-08T13:29:47;18.83;;;13.95;;
8564;SDS011;4320;51.498;6.556;2024-03-08T13:32:14;23.05;;;13.90;;
8564;SDS011;4320;51.498;6.556;2024-03-08T13:34:41;20.27;;;13.68;;
8564;SDS011;4320;51.498;6.556;2024-03-08T13:37:07;17.38;;;14.07;;
8564;SDS011;4320;51.498;6.556;2024-03-08T13:39:35;18.75;;;13.70;;
8564;SDS011;4320;51.498;6.556;2024-03-08T13:42:14;16.92;;;13.27;;
8564;SDS011;4320;51.498;6.556;2024-03-08T13:44:47;17.55;;;12.68;;
8564;SDS011;4320;51.498;6.556;2024-03-08T13:47:18;16.05;;;12.32;;
8564;SDS011;4320;51.498;6.556;2024-03-08T13:49:44;16.50;;;12.40;;
8564;SDS011;4320;51.498;6.556;2024-03-08T13:52:12;17.63;;;11.60;;
8564;SDS011;4320;51.498;6.556;2024-03-08T13:54:40;18.08;;;12.10;;
8564;SDS011;4320;51.498;6.556;2024-03-08T13:57:06;15.52;;;11.15;;
8564;SDS011;4320;51.498;6.556;2024-03-08T13:59:32;15.25;;;10.57;;
8564;SDS011;4320;51.498;6.556;2024-03-08T14:01:58;16.30;;;9.68;;
8564;SDS011;4320;51.498;6.556;2024-03-08T14:04:26;14.25;;;10.63;;
8564;SDS011;4320;51.498;6.556;2024-03-08T14:06:53;12.45;;;9.57;;
8564;SDS011;4320;51.498;6.556;2024-03-08T14:09:24;12.15;;;8.38;;
8564;SDS011;4320;51.498;6.556;2024-03-08T14:11:53;10.35;;;7.70;;
8564;SDS011;4320;51.498;6.556;2024-03-08T14:14:20;11.80;;;8.10;;
8564;SDS011;4320;51.498;6.556;2024-03-08T14:16:48;12.23;;;7.35;;
8564;SDS011;4320;51.498;6.556;2024-03-08T14:19:18;9.52;;;7.00;;
8564;SDS011;4320;51.498;6.556;2024-03-08T14:21:44;8.23;;;6.90;;
8564;SDS011;4320;51.498;6.556;2024-03-08T14:24:09;11.10;;;7.47;;
8564;SDS011;4320;51.498;6.556;2024-03-08T14:26:35;8.38;;;6.68;;
8564;SDS011;4320;51.498;6.556;2024-03-08T14:29:03;9.93;;;6.70;;
8564;SDS011;4320;51.498;6.556;2024-03-08T14:31:30;8.68;;;5.88;;
8564;SDS011;4320;51.498;6.556;2024-03-08T14:33:56;9.32;;;7.15;;
8564;SDS011;4320;51.498;6.556;2024-03-08T14:36:23;7.60;;;6.20;;
8564;SDS011;4320;51.498;6.556;2024-03-08T14:38:50;8.73;;;6.70;;
8564;SDS011;4320;51.498;6.556;2024-03-08T14:41:17;9.15;;;6.32;;
8564;SDS011;4320;51.498;6.556;2024-03-08T14:43:43;8.75;;;6.22;;
8564;SDS011;4320;51.498;6.556;2024-03-08T14:46:12;8.80;;;6.50;;
8564;SDS011;4320;51.498;6.556;2024-03-08T14:48:42;8.73;;;6.45;;
8564;SDS011;4320;51.498;6.556;2024-03-08T14:51:08;9.02;;;5.78;;
8564;SDS011;4320;51.498;6.556;2024-03-08T14:53:36;8.95;;;6.30;;
8564;SDS011;4320;51.498;6.556;2024-03-08T14:56:06;8.95;;;6.65;;
8564;SDS011;4320;51.498;6.556;2024-03-08T14:58:34;7.38;;;5.53;;
8564;SDS011;4320;51.498;6.556;2024-03-08T15:01:01;8.20;;;6.38;;
8564;SDS011;4320;51.498;6.556;2024-03-08T15:03:27;8.45;;;6.80;;
8564;SDS011;4320;51.498;6.556;2024-03-08T15:05:54;8.82;;;6.88;;
8564;SDS011;4320;51.498;6.556;2024-03-08T15:08:20;6.88;;;5.85;;